Avon, Connecticut
Current Conditions -  °F | °C
As of 10:53 AM on Thursday 23 Oct 2014 (Local Time) from KHFD Reporting Station
Overcast Overcast  
Wind Chill: 51°   Ceiling: 1800
Heat Index: 51°   Visibility: 10mi
Dew Point: 46°   Wind: 9mph
Humidity: 83%   Direction: 360°N
Pressure: 29.67"   Gusts: 20mph
Location:  41.81°N, 72.83°W
Report Text: KHFD 231453Z 36008G17KT 10SM OVC018 11/08 A2967 RMK AO2 PK WND 01026/1409 SLP047 60001 T01060078 56003
Loading
Personal Weather Stations






























Interactive Weather Map
Tropical Storm Tracking
New forecast layout! Learn more

10-Day Weather Forecast

Advertisements
Track Severe Weather on mobile